X  Chiuso Dati meteorologici dell'aviazione (METAR)     KDNN Dalton Municipal Airport
Temperatura
6°C Temperatura
3°C Punto di rugiada
81% Umidità



Vento
0 KM/O
0 MPH
0 M/S
0 KTS



Calmo
N
Condizioni attuali

Chiaro Chiaro
Pressione 1025.72 (hPa) - 30.29 (inHg)
Visibilità 9 (miglio) - 14.5 (km)
Aeroporto
Codice-Aeroporto KDNN

Posizione: Dalton Municipal Airport
Distanza: 34 (km)

Metar:
KDNN 301315Z AUTO 00000KT 9SM CLR 06/03 A3029 RMK AO2 T00610026

Ore: 03-30-2023 09:15 EDT